Log Lane Village, CO

12:07 PM MDT on September 16, 2014 (GMT -0600)
Fort Morgan | Change Station
CLOSE
Current Station
Personal Weather Station
Location: Fort Morgan, CO
Elevation: 4327 ft
Nearby Weather Stations

Elev 4327 ft 40.24 °N, 103.79 °W | Updated 5 seconds ago

Clear
Clear
84.6 °F
Feels Like 82 °F
N
2.2
Wind Variable Wind from South
Gusts 6.9 mph

Today
High -- | Low -- °F
--% Chance of Precip.
Yesterday
High -- | Low -- °F
Precip. -- in
6:37 AM 7:02 PM
Last Quarter, 43% visible
Pressure 30.11 in
Visibility 10.0 miles
Clouds Clear
Heat Index 82 °F
Dew Point 42 °F
Humidity 22%
Rainfall 0.00 in
Snow Depth 0 in , 0 in , 0 in
UV 0.0 out of 12
Pollen 8.10 out of 12
Air Quality Not available.
Flu Activity Not available.
METAR KFMM 161755Z AUTO 26008KT 240V300 10SM CLR 28/08 A3011 RMK AO2 T02790079 10279 20068

More Conditions Fewer Conditions

Pressure 30.11 in
Visibility 10.0 miles
Clouds Clear
Heat Index 82 °F
Dew Point 42 °F
Humidity 22%
Rainfall 0.00 in
Snow Depth 0 in , 0 in , 0 in
UV 0.0 out of 12
Pollen 8.10 out of 12
Air Quality Not available.
Flu Activity Not available.
METAR KFMM 161755Z AUTO 26008KT 240V300 10SM CLR 28/08 A3011 RMK AO2 T02790079 10279 20068

More Conditions Fewer Conditions

10-Day Weather Forecast

Almanac

Astronomy

Sep. 16, 2014 Rise Set
Actual Time 6:37 AM MDT 7:02 PM MDT
Civil Twilight 6:09 AM MDT 7:29 PM MDT
Nautical Twilight 5:37 AM MDT 8:01 PM MDT
Astronomical Twilight 5:04 AM MDT 8:34 PM MDT
Moon No Moon Rise 2:28 PM MDT
Length of Visible Light 13h 19m
Length of Day
12h 25m
Tomorrow will be 2m 37s shorter.
Last Quarter, 43% of the Moon is Illuminated
Today
Last Quarter
Sep 24
New
Oct 1
First Quarter
Oct 8
Full
Oct 15
Last Quarter

Today's Extremes

State Highs State Lows

Community

WunderPhotos

Upload Photos

1,753,848 photos uploaded!

Nearby

Snow Depth

Station Depth Elevation
Overland Reservoir 0 in 9880 ft
Rabbit Ears 0 in 9400 ft
Willow Creek Pass 0 in 9540 ft
Idarado 0 in 9800 ft
Loveland Basin 3 in 11400 ft

Earthquake Activity

City Distance Mag. Time & Date
No recent earthquake activity has been reported nearby.
Minimum magnitude displayed is 2.5.

Coastal Water Temperatures

Place Temperature
No Stations Reporting

Nearby Weather Stations